Main page
METAR-TAF:

METAR-TAF

Airports :

Base de Almagro

Almagro, Spain

latitude: 38-57-11N, longitude: 3-44-29W, elevation: 629 m

Current weather observation

The report was made 1 hour and 54 minutes ago, at 22:00 UTC
Calm wind
Temperature 9°C
Humidity 93%
Pressure 1026 hPa
Visibility 10 km or more
no clouds below 1500 m and no cumulonimbus

METAR: LEAO 282200Z 00000KT CAVOK 09/08 Q1026

Time: 00:54 (23:54 UTC)

Forecast

The report was made 3 hours and 54 minutes ago, at 20:00 UTC
Forecast valid from 28 at 21 UTC to 29 at 21 UTC
Wind 4 kt from variable directions
Visibility 10 km or more
no clouds below 1500 m and no cumulonimbus
Probability 40% :
Temporary
from 29 at 02 UTC to 29 at 10 UTC
Visibility: 0500 m
at a height of 300 ft
fog
Temporary
from 29 at 00 UTC to 29 at 11 UTC
Visibility: 3000 m
Overcast at a height of 700 ft
mist

TAF: LEAO 282000Z 2821/2921 VRB04KT CAVOK TX21/2915Z TN08/2906Z PROB40 TEMPO 2902/2910 0500 FG VV003 TEMPO 2900/2911 3000 BR OVC007

Weather observations and forecasts of more than 4000 airports (METAR and TAF reports).

The available stations are represented by yellow and red dots on the map.

Hover mouse over dot to see the name of the station.

Then click to see weather observations and forecasts.

To change the map : click on the green buttons with a black cross to zoom in, on the green button with a dash to zoom out, or on the green arrows for adjacent maps.


METAR-TAF: